ěÝzenÝ letovÚho provozu ╚eskÚ republiky
Letiste: LKNA Aktualizace: 07.07.2020 15:31:25  UTC
 METAR LKNA 07.07. 15:30 ...
METAR LKNA 071530Z 35009KT CAVOK 17/07 Q1019 NOSIG RMK BLU BLU=
 TAF LKNA 07.07. 11:00 ...
TAF LKNA 071100Z 0712/0812 31008KT CAVOK      TEMPO 0712/0716 32014G24KT SCT040      BECMG 0719/0721 VRB02KT=